sensor_id;sensor_type;location;lat;lon;timestamp;temperature;humidity
2967;DHT22;1493;51.496;7.210;2023-08-30T00:02:02;16.80;99.90
2967;DHT22;1493;51.496;7.210;2023-08-30T00:04:29;16.70;99.90
2967;DHT22;1493;51.496;7.210;2023-08-30T00:06:55;16.70;99.90
2967;DHT22;1493;51.496;7.210;2023-08-30T00:09:22;16.60;99.90
2967;DHT22;1493;51.496;7.210;2023-08-30T00:11:50;16.60;99.90
2967;DHT22;1493;51.496;7.210;2023-08-30T00:14:17;16.60;99.90
2967;DHT22;1493;51.496;7.210;2023-08-30T00:16:44;16.50;99.90
2967;DHT22;1493;51.496;7.210;2023-08-30T00:19:12;16.50;99.90
2967;DHT22;1493;51.496;7.210;2023-08-30T00:21:39;16.40;99.90
2967;DHT22;1493;51.496;7.210;2023-08-30T00:24:06;16.40;99.90
2967;DHT22;1493;51.496;7.210;2023-08-30T00:26:32;16.40;99.90
2967;DHT22;1493;51.496;7.210;2023-08-30T00:28:59;16.30;99.90
2967;DHT22;1493;51.496;7.210;2023-08-30T00:31:26;16.30;99.90
2967;DHT22;1493;51.496;7.210;2023-08-30T00:33:53;16.20;99.90
2967;DHT22;1493;51.496;7.210;2023-08-30T00:36:21;16.20;99.90
2967;DHT22;1493;51.496;7.210;2023-08-30T00:38:48;16.20;99.90
2967;DHT22;1493;51.496;7.210;2023-08-30T00:41:15;16.20;99.90
2967;DHT22;1493;51.496;7.210;2023-08-30T00:43:41;16.10;99.90
2967;DHT22;1493;51.496;7.210;2023-08-30T00:46:08;16.10;99.90
2967;DHT22;1493;51.496;7.210;2023-08-30T00:48:35;16.00;99.90
2967;DHT22;1493;51.496;7.210;2023-08-30T00:51:04;16.00;99.90
2967;DHT22;1493;51.496;7.210;2023-08-30T00:53:34;16.00;99.90
2967;DHT22;1493;51.496;7.210;2023-08-30T00:56:00;16.00;99.90
2967;DHT22;1493;51.496;7.210;2023-08-30T00:58:27;16.00;99.90
2967;DHT22;1493;51.496;7.210;2023-08-30T01:00:54;16.00;99.90
2967;DHT22;1493;51.496;7.210;2023-08-30T01:03:21;16.00;99.90
2967;DHT22;1493;51.496;7.210;2023-08-30T01:05:48;15.90;99.90
2967;DHT22;1493;51.496;7.210;2023-08-30T01:08:15;15.90;99.90
2967;DHT22;1493;51.496;7.210;2023-08-30T01:10:52;15.80;99.90
2967;DHT22;1493;51.496;7.210;2023-08-30T01:13:21;15.90;99.90
2967;DHT22;1493;51.496;7.210;2023-08-30T01:15:48;15.80;99.90
2967;DHT22;1493;51.496;7.210;2023-08-30T01:18:18;15.80;99.90
2967;DHT22;1493;51.496;7.210;2023-08-30T01:20:46;15.80;99.90
2967;DHT22;1493;51.496;7.210;2023-08-30T01:23:24;15.80;99.90
2967;DHT22;1493;51.496;7.210;2023-08-30T01:28:40;15.70;99.90
2967;DHT22;1493;51.496;7.210;2023-08-30T01:31:08;15.70;99.90
2967;DHT22;1493;51.496;7.210;2023-08-30T01:33:36;15.70;99.90
2967;DHT22;1493;51.496;7.210;2023-08-30T01:36:04;15.60;99.90
2967;DHT22;1493;51.496;7.210;2023-08-30T01:38:32;15.60;99.90
2967;DHT22;1493;51.496;7.210;2023-08-30T01:41:00;15.60;99.90
2967;DHT22;1493;51.496;7.210;2023-08-30T01:43:29;15.60;99.90
2967;DHT22;1493;51.496;7.210;2023-08-30T01:45:59;15.60;99.90
2967;DHT22;1493;51.496;7.210;2023-08-30T01:48:28;15.60;99.90
2967;DHT22;1493;51.496;7.210;2023-08-30T01:50:56;15.60;99.90
2967;DHT22;1493;51.496;7.210;2023-08-30T01:53:24;15.50;99.90
2967;DHT22;1493;51.496;7.210;2023-08-30T01:55:51;15.50;99.90
2967;DHT22;1493;51.496;7.210;2023-08-30T01:58:18;15.50;99.90
2967;DHT22;1493;51.496;7.210;2023-08-30T02:00:46;15.40;99.90
2967;DHT22;1493;51.496;7.210;2023-08-30T02:03:14;15.40;99.90
2967;DHT22;1493;51.496;7.210;2023-08-30T02:05:52;15.40;99.90
2967;DHT22;1493;51.496;7.210;2023-08-30T02:08:22;15.30;99.90
2967;DHT22;1493;51.496;7.210;2023-08-30T02:10:56;15.30;99.90
2967;DHT22;1493;51.496;7.210;2023-08-30T02:13:26;15.30;99.90
2967;DHT22;1493;51.496;7.210;2023-08-30T02:15:55;15.30;99.90
2967;DHT22;1493;51.496;7.210;2023-08-30T02:18:25;15.30;99.90
2967;DHT22;1493;51.496;7.210;2023-08-30T02:20:53;15.30;99.90
2967;DHT22;1493;51.496;7.210;2023-08-30T02:23:23;15.40;99.90
2967;DHT22;1493;51.496;7.210;2023-08-30T02:25:49;15.30;99.90
2967;DHT22;1493;51.496;7.210;2023-08-30T02:28:16;15.40;99.90
2967;DHT22;1493;51.496;7.210;2023-08-30T02:30:43;15.30;99.90
2967;DHT22;1493;51.496;7.210;2023-08-30T02:33:10;15.30;99.90
2967;DHT22;1493;51.496;7.210;2023-08-30T02:35:38;15.20;99.90
2967;DHT22;1493;51.496;7.210;2023-08-30T02:38:05;15.20;99.90
2967;DHT22;1493;51.496;7.210;2023-08-30T02:40:33;15.20;99.90
2967;DHT22;1493;51.496;7.210;2023-08-30T02:42:59;15.20;99.90
2967;DHT22;1493;51.496;7.210;2023-08-30T02:45:26;15.20;99.90
2967;DHT22;1493;51.496;7.210;2023-08-30T02:47:55;15.20;99.90
2967;DHT22;1493;51.496;7.210;2023-08-30T02:50:22;15.20;99.90
2967;DHT22;1493;51.496;7.210;2023-08-30T02:52:51;15.20;99.90
2967;DHT22;1493;51.496;7.210;2023-08-30T02:55:18;15.10;99.90
2967;DHT22;1493;51.496;7.210;2023-08-30T02:57:45;15.10;99.90
2967;DHT22;1493;51.496;7.210;2023-08-30T03:00:14;15.10;99.90
2967;DHT22;1493;51.496;7.210;2023-08-30T03:02:41;15.10;99.90
2967;DHT22;1493;51.496;7.210;2023-08-30T03:05:08;15.10;99.90
2967;DHT22;1493;51.496;7.210;2023-08-30T03:07:34;15.00;99.90
2967;DHT22;1493;51.496;7.210;2023-08-30T03:10:03;15.00;99.90
2967;DHT22;1493;51.496;7.210;2023-08-30T03:12:30;15.00;99.90
2967;DHT22;1493;51.496;7.210;2023-08-30T03:14:56;15.00;99.90
2967;DHT22;1493;51.496;7.210;2023-08-30T03:17:23;15.00;99.90
2967;DHT22;1493;51.496;7.210;2023-08-30T03:19:51;14.90;99.90
2967;DHT22;1493;51.496;7.210;2023-08-30T03:22:19;14.90;99.90
2967;DHT22;1493;51.496;7.210;2023-08-30T03:24:46;15.00;99.90
2967;DHT22;1493;51.496;7.210;2023-08-30T03:27:14;15.00;99.90
2967;DHT22;1493;51.496;7.210;2023-08-30T03:29:41;14.90;99.90
2967;DHT22;1493;51.496;7.210;2023-08-30T03:32:08;14.90;99.90
2967;DHT22;1493;51.496;7.210;2023-08-30T03:34:35;14.90;99.90
2967;DHT22;1493;51.496;7.210;2023-08-30T03:37:01;14.90;99.90
2967;DHT22;1493;51.496;7.210;2023-08-30T03:39:28;14.90;99.90
2967;DHT22;1493;51.496;7.210;2023-08-30T03:41:55;14.90;99.90
2967;DHT22;1493;51.496;7.210;2023-08-30T03:44:24;14.90;99.90
2967;DHT22;1493;51.496;7.210;2023-08-30T03:46:50;14.80;99.90
2967;DHT22;1493;51.496;7.210;2023-08-30T03:49:17;14.80;99.90
2967;DHT22;1493;51.496;7.210;2023-08-30T03:51:44;14.90;99.90
2967;DHT22;1493;51.496;7.210;2023-08-30T03:54:11;14.90;99.90
2967;DHT22;1493;51.496;7.210;2023-08-30T03:56:41;14.80;99.90
2967;DHT22;1493;51.496;7.210;2023-08-30T03:59:09;14.80;99.90
2967;DHT22;1493;51.496;7.210;2023-08-30T04:01:37;14.80;99.90
2967;DHT22;1493;51.496;7.210;2023-08-30T04:04:04;14.80;99.90
2967;DHT22;1493;51.496;7.210;2023-08-30T04:06:31;14.80;99.90
2967;DHT22;1493;51.496;7.210;2023-08-30T04:08:58;14.80;99.90
2967;DHT22;1493;51.496;7.210;2023-08-30T04:11:25;14.80;99.90
2967;DHT22;1493;51.496;7.210;2023-08-30T04:13:51;14.80;99.90
2967;DHT22;1493;51.496;7.210;2023-08-30T04:16:18;14.70;99.90
2967;DHT22;1493;51.496;7.210;2023-08-30T04:18:47;14.70;99.90
2967;DHT22;1493;51.496;7.210;2023-08-30T04:21:13;14.70;99.90
2967;DHT22;1493;51.496;7.210;2023-08-30T04:23:40;14.70;99.90
2967;DHT22;1493;51.496;7.210;2023-08-30T04:26:07;14.70;99.90
2967;DHT22;1493;51.496;7.210;2023-08-30T04:28:34;14.70;99.90
2967;DHT22;1493;51.496;7.210;2023-08-30T04:31:01;14.60;99.90
2967;DHT22;1493;51.496;7.210;2023-08-30T04:33:27;14.70;99.90
2967;DHT22;1493;51.496;7.210;2023-08-30T04:35:56;14.70;99.90
2967;DHT22;1493;51.496;7.210;2023-08-30T04:38:22;14.60;99.90
2967;DHT22;1493;51.496;7.210;2023-08-30T04:40:49;14.60;99.90
2967;DHT22;1493;51.496;7.210;2023-08-30T04:43:16;14.60;99.90
2967;DHT22;1493;51.496;7.210;2023-08-30T04:45:43;14.60;99.90
2967;DHT22;1493;51.496;7.210;2023-08-30T04:48:10;14.60;99.90
2967;DHT22;1493;51.496;7.210;2023-08-30T04:50:36;14.50;99.90
2967;DHT22;1493;51.496;7.210;2023-08-30T04:53:05;14.60;99.90
2967;DHT22;1493;51.496;7.210;2023-08-30T04:55:31;14.60;99.90
2967;DHT22;1493;51.496;7.210;2023-08-30T04:57:58;14.50;99.90
2967;DHT22;1493;51.496;7.210;2023-08-30T05:00:25;14.50;99.90
2967;DHT22;1493;51.496;7.210;2023-08-30T05:02:55;14.60;99.90
2967;DHT22;1493;51.496;7.210;2023-08-30T05:05:22;14.60;99.90
2967;DHT22;1493;51.496;7.210;2023-08-30T05:07:49;14.60;99.90
2967;DHT22;1493;51.496;7.210;2023-08-30T05:10:17;14.60;99.90
2967;DHT22;1493;51.496;7.210;2023-08-30T05:12:44;14.60;99.90
2967;DHT22;1493;51.496;7.210;2023-08-30T05:15:15;14.60;99.90
2967;DHT22;1493;51.496;7.210;2023-08-30T05:17:42;14.60;99.90
2967;DHT22;1493;51.496;7.210;2023-08-30T05:20:09;14.70;99.90
2967;DHT22;1493;51.496;7.210;2023-08-30T05:22:36;14.60;99.90
2967;DHT22;1493;51.496;7.210;2023-08-30T05:25:03;14.70;99.90
2967;DHT22;1493;51.496;7.210;2023-08-30T05:27:31;14.70;99.90
2967;DHT22;1493;51.496;7.210;2023-08-30T05:29:58;14.70;99.90
2967;DHT22;1493;51.496;7.210;2023-08-30T05:32:25;14.70;99.90
2967;DHT22;1493;51.496;7.210;2023-08-30T05:34:52;14.70;99.90
2967;DHT22;1493;51.496;7.210;2023-08-30T05:37:19;14.70;99.90
2967;DHT22;1493;51.496;7.210;2023-08-30T05:39:46;14.80;99.90
2967;DHT22;1493;51.496;7.210;2023-08-30T05:42:13;14.80;99.90
2967;DHT22;1493;51.496;7.210;2023-08-30T05:44:41;14.80;99.90
2967;DHT22;1493;51.496;7.210;2023-08-30T05:47:08;14.80;99.90
2967;DHT22;1493;51.496;7.210;2023-08-30T05:49:40;14.80;99.90
2967;DHT22;1493;51.496;7.210;2023-08-30T05:52:07;14.80;99.90
2967;DHT22;1493;51.496;7.210;2023-08-30T05:54:34;14.80;99.90
2967;DHT22;1493;51.496;7.210;2023-08-30T05:57:01;14.90;99.90
2967;DHT22;1493;51.496;7.210;2023-08-30T05:59:28;14.90;99.90
2967;DHT22;1493;51.496;7.210;2023-08-30T06:01:56;14.90;99.90
2967;DHT22;1493;51.496;7.210;2023-08-30T06:04:23;14.90;99.90
2967;DHT22;1493;51.496;7.210;2023-08-30T06:06:49;15.00;99.90
2967;DHT22;1493;51.496;7.210;2023-08-30T06:09:16;15.00;99.90
2967;DHT22;1493;51.496;7.210;2023-08-30T06:11:43;15.00;99.90
2967;DHT22;1493;51.496;7.210;2023-08-30T06:14:10;15.10;99.90
2967;DHT22;1493;51.496;7.210;2023-08-30T06:16:37;15.10;99.90
2967;DHT22;1493;51.496;7.210;2023-08-30T06:19:05;15.10;99.90
2967;DHT22;1493;51.496;7.210;2023-08-30T06:21:32;15.10;99.90
2967;DHT22;1493;51.496;7.210;2023-08-30T06:23:59;15.20;99.90
2967;DHT22;1493;51.496;7.210;2023-08-30T06:26:26;15.20;99.90
2967;DHT22;1493;51.496;7.210;2023-08-30T06:28:52;15.30;99.90
2967;DHT22;1493;51.496;7.210;2023-08-30T06:31:19;15.30;99.90
2967;DHT22;1493;51.496;7.210;2023-08-30T06:33:46;15.40;99.90
2967;DHT22;1493;51.496;7.210;2023-08-30T06:36:20;15.40;99.90
2967;DHT22;1493;51.496;7.210;2023-08-30T06:38:48;15.50;99.90
2967;DHT22;1493;51.496;7.210;2023-08-30T06:41:15;15.50;99.90
2967;DHT22;1493;51.496;7.210;2023-08-30T06:43:42;15.50;99.90
2967;DHT22;1493;51.496;7.210;2023-08-30T06:46:09;15.50;99.90
2967;DHT22;1493;51.496;7.210;2023-08-30T06:48:36;15.60;99.90
2967;DHT22;1493;51.496;7.210;2023-08-30T06:51:02;15.60;99.90
2967;DHT22;1493;51.496;7.210;2023-08-30T06:53:31;15.70;99.90
2967;DHT22;1493;51.496;7.210;2023-08-30T06:55:58;15.90;99.90
2967;DHT22;1493;51.496;7.210;2023-08-30T06:58:26;15.90;99.90
2967;DHT22;1493;51.496;7.210;2023-08-30T07:00:53;16.00;99.90
2967;DHT22;1493;51.496;7.210;2023-08-30T07:03:20;16.10;99.90
2967;DHT22;1493;51.496;7.210;2023-08-30T07:05:46;16.10;99.90
2967;DHT22;1493;51.496;7.210;2023-08-30T07:08:14;16.10;99.90
2967;DHT22;1493;51.496;7.210;2023-08-30T07:10:42;16.10;99.90
2967;DHT22;1493;51.496;7.210;2023-08-30T07:13:09;16.20;99.90
2967;DHT22;1493;51.496;7.210;2023-08-30T07:15:37;16.30;99.90
2967;DHT22;1493;51.496;7.210;2023-08-30T07:18:05;16.40;99.90
2967;DHT22;1493;51.496;7.210;2023-08-30T07:20:32;16.40;99.90
2967;DHT22;1493;51.496;7.210;2023-08-30T07:22:59;16.40;99.90
2967;DHT22;1493;51.496;7.210;2023-08-30T07:25:26;16.50;99.90
2967;DHT22;1493;51.496;7.210;2023-08-30T07:27:54;16.50;99.90
2967;DHT22;1493;51.496;7.210;2023-08-30T07:30:21;16.60;99.90
2967;DHT22;1493;51.496;7.210;2023-08-30T07:32:48;16.60;99.90
2967;DHT22;1493;51.496;7.210;2023-08-30T07:35:15;16.60;99.90
2967;DHT22;1493;51.496;7.210;2023-08-30T07:37:42;16.60;99.90
2967;DHT22;1493;51.496;7.210;2023-08-30T07:40:10;16.80;99.90
2967;DHT22;1493;51.496;7.210;2023-08-30T07:42:36;16.80;99.90
2967;DHT22;1493;51.496;7.210;2023-08-30T07:45:06;16.90;99.90
2967;DHT22;1493;51.496;7.210;2023-08-30T07:47:33;17.00;99.90
2967;DHT22;1493;51.496;7.210;2023-08-30T07:50:00;17.10;99.90
2967;DHT22;1493;51.496;7.210;2023-08-30T07:52:27;17.00;99.90
2967;DHT22;1493;51.496;7.210;2023-08-30T07:54:53;17.10;99.90
2967;DHT22;1493;51.496;7.210;2023-08-30T07:57:20;17.20;99.90
2967;DHT22;1493;51.496;7.210;2023-08-30T07:59:47;17.20;99.90
2967;DHT22;1493;51.496;7.210;2023-08-30T08:02:15;17.30;99.90
2967;DHT22;1493;51.496;7.210;2023-08-30T08:04:42;17.40;99.90
2967;DHT22;1493;51.496;7.210;2023-08-30T08:07:09;17.40;99.90
2967;DHT22;1493;51.496;7.210;2023-08-30T08:09:36;17.50;99.90
2967;DHT22;1493;51.496;7.210;2023-08-30T08:12:03;17.50;99.90
2967;DHT22;1493;51.496;7.210;2023-08-30T08:14:30;17.60;99.90
2967;DHT22;1493;51.496;7.210;2023-08-30T08:16:57;17.70;99.90
2967;DHT22;1493;51.496;7.210;2023-08-30T08:19:25;17.80;99.90
2967;DHT22;1493;51.496;7.210;2023-08-30T08:21:52;17.80;99.90
2967;DHT22;1493;51.496;7.210;2023-08-30T08:24:20;17.80;99.90
2967;DHT22;1493;51.496;7.210;2023-08-30T08:26:47;17.70;99.90
2967;DHT22;1493;51.496;7.210;2023-08-30T08:29:14;17.80;99.90
2967;DHT22;1493;51.496;7.210;2023-08-30T08:31:40;18.00;99.90
2967;DHT22;1493;51.496;7.210;2023-08-30T08:34:12;18.10;99.90
2967;DHT22;1493;51.496;7.210;2023-08-30T08:36:42;18.20;99.90
2967;DHT22;1493;51.496;7.210;2023-08-30T08:39:09;18.30;99.90
2967;DHT22;1493;51.496;7.210;2023-08-30T08:41:44;18.50;99.90
2967;DHT22;1493;51.496;7.210;2023-08-30T08:44:12;18.80;99.90
2967;DHT22;1493;51.496;7.210;2023-08-30T08:46:40;18.80;99.90
2967;DHT22;1493;51.496;7.210;2023-08-30T08:49:09;18.70;99.90
2967;DHT22;1493;51.496;7.210;2023-08-30T08:51:40;18.80;99.90
2967;DHT22;1493;51.496;7.210;2023-08-30T08:54:07;18.80;99.90
2967;DHT22;1493;51.496;7.210;2023-08-30T08:56:36;18.80;99.90
2967;DHT22;1493;51.496;7.210;2023-08-30T08:59:04;18.80;99.90
2967;DHT22;1493;51.496;7.210;2023-08-30T09:01:35;18.70;99.90
2967;DHT22;1493;51.496;7.210;2023-08-30T09:04:04;18.80;99.90
2967;DHT22;1493;51.496;7.210;2023-08-30T09:06:37;18.80;99.90
2967;DHT22;1493;51.496;7.210;2023-08-30T09:09:07;18.70;99.90
2967;DHT22;1493;51.496;7.210;2023-08-30T09:11:39;18.70;99.90
2967;DHT22;1493;51.496;7.210;2023-08-30T09:14:09;18.70;99.90
2967;DHT22;1493;51.496;7.210;2023-08-30T09:16:36;18.70;99.90
2967;DHT22;1493;51.496;7.210;2023-08-30T09:19:04;18.70;99.90
2967;DHT22;1493;51.496;7.210;2023-08-30T09:21:31;18.90;99.90
2967;DHT22;1493;51.496;7.210;2023-08-30T09:23:59;18.80;99.90
2967;DHT22;1493;51.496;7.210;2023-08-30T09:26:28;18.80;99.90
2967;DHT22;1493;51.496;7.210;2023-08-30T09:29:01;19.10;99.90
2967;DHT22;1493;51.496;7.210;2023-08-30T09:31:33;19.20;99.90
2967;DHT22;1493;51.496;7.210;2023-08-30T09:33:59;19.40;99.90
2967;DHT22;1493;51.496;7.210;2023-08-30T09:36:32;19.20;99.90
2967;DHT22;1493;51.496;7.210;2023-08-30T09:38:59;19.20;99.90
2967;DHT22;1493;51.496;7.210;2023-08-30T09:41:30;19.30;99.90
2967;DHT22;1493;51.496;7.210;2023-08-30T09:43:58;19.50;99.90
2967;DHT22;1493;51.496;7.210;2023-08-30T09:46:25;19.60;99.90
2967;DHT22;1493;51.496;7.210;2023-08-30T09:48:53;19.60;99.90
2967;DHT22;1493;51.496;7.210;2023-08-30T09:51:21;19.70;99.90
2967;DHT22;1493;51.496;7.210;2023-08-30T09:53:54;19.70;99.90
2967;DHT22;1493;51.496;7.210;2023-08-30T09:56:25;19.60;99.90
2967;DHT22;1493;51.496;7.210;2023-08-30T09:58:54;19.70;99.90
2967;DHT22;1493;51.496;7.210;2023-08-30T10:01:22;19.90;99.90
2967;DHT22;1493;51.496;7.210;2023-08-30T10:03:49;20.00;99.90
2967;DHT22;1493;51.496;7.210;2023-08-30T10:06:17;20.10;99.90
2967;DHT22;1493;51.496;7.210;2023-08-30T10:08:47;19.70;99.90
2967;DHT22;1493;51.496;7.210;2023-08-30T10:11:18;19.60;99.90
2967;DHT22;1493;51.496;7.210;2023-08-30T10:13:45;19.30;99.90
2967;DHT22;1493;51.496;7.210;2023-08-30T10:16:19;19.10;99.90
2967;DHT22;1493;51.496;7.210;2023-08-30T10:18:47;18.90;99.90
2967;DHT22;1493;51.496;7.210;2023-08-30T10:21:18;18.60;99.90
2967;DHT22;1493;51.496;7.210;2023-08-30T10:23:46;18.40;99.90
2967;DHT22;1493;51.496;7.210;2023-08-30T10:26:18;17.90;99.90
2967;DHT22;1493;51.496;7.210;2023-08-30T10:28:46;17.90;99.90
2967;DHT22;1493;51.496;7.210;2023-08-30T10:31:14;17.60;99.90
2967;DHT22;1493;51.496;7.210;2023-08-30T10:33:47;17.40;99.90
2967;DHT22;1493;51.496;7.210;2023-08-30T10:36:20;17.30;99.90
2967;DHT22;1493;51.496;7.210;2023-08-30T10:38:49;17.20;99.90
2967;DHT22;1493;51.496;7.210;2023-08-30T10:41:20;17.00;99.90
2967;DHT22;1493;51.496;7.210;2023-08-30T10:43:50;17.00;99.90
2967;DHT22;1493;51.496;7.210;2023-08-30T10:46:29;17.00;99.90
2967;DHT22;1493;51.496;7.210;2023-08-30T10:49:08;16.80;99.90
2967;DHT22;1493;51.496;7.210;2023-08-30T10:51:37;16.90;99.90
2967;DHT22;1493;51.496;7.210;2023-08-30T10:54:11;16.80;99.90
2967;DHT22;1493;51.496;7.210;2023-08-30T10:56:46;16.80;99.90
2967;DHT22;1493;51.496;7.210;2023-08-30T10:59:17;16.70;99.90
2967;DHT22;1493;51.496;7.210;2023-08-30T11:01:47;16.60;99.90
2967;DHT22;1493;51.496;7.210;2023-08-30T11:04:15;16.50;99.90
2967;DHT22;1493;51.496;7.210;2023-08-30T11:06:43;16.50;99.90
2967;DHT22;1493;51.496;7.210;2023-08-30T11:09:13;16.50;99.90
2967;DHT22;1493;51.496;7.210;2023-08-30T11:11:43;16.40;99.90
2967;DHT22;1493;51.496;7.210;2023-08-30T11:14:10;16.30;99.90
2967;DHT22;1493;51.496;7.210;2023-08-30T11:16:37;16.30;99.90
2967;DHT22;1493;51.496;7.210;2023-08-30T11:19:07;16.30;99.90
2967;DHT22;1493;51.496;7.210;2023-08-30T11:21:35;16.20;99.90
2967;DHT22;1493;51.496;7.210;2023-08-30T11:24:03;16.10;99.90
2967;DHT22;1493;51.496;7.210;2023-08-30T11:26:30;16.10;99.90
2967;DHT22;1493;51.496;7.210;2023-08-30T11:28:57;16.10;99.90
2967;DHT22;1493;51.496;7.210;2023-08-30T11:31:25;16.20;99.90
2967;DHT22;1493;51.496;7.210;2023-08-30T11:33:53;16.30;99.90
2967;DHT22;1493;51.496;7.210;2023-08-30T11:36:23;16.20;99.90
2967;DHT22;1493;51.496;7.210;2023-08-30T11:38:50;16.20;99.90
2967;DHT22;1493;51.496;7.210;2023-08-30T11:41:17;16.10;99.90
2967;DHT22;1493;51.496;7.210;2023-08-30T11:43:47;16.20;99.90
2967;DHT22;1493;51.496;7.210;2023-08-30T11:46:14;16.00;99.90
2967;DHT22;1493;51.496;7.210;2023-08-30T11:48:41;16.00;99.90
2967;DHT22;1493;51.496;7.210;2023-08-30T11:51:08;16.10;99.90
2967;DHT22;1493;51.496;7.210;2023-08-30T11:53:38;16.00;99.90
2967;DHT22;1493;51.496;7.210;2023-08-30T11:56:05;16.10;99.90
2967;DHT22;1493;51.496;7.210;2023-08-30T11:58:33;16.10;99.90
2967;DHT22;1493;51.496;7.210;2023-08-30T12:01:00;16.00;99.90
2967;DHT22;1493;51.496;7.210;2023-08-30T12:03:28;16.00;99.90
2967;DHT22;1493;51.496;7.210;2023-08-30T12:05:56;16.00;99.90
2967;DHT22;1493;51.496;7.210;2023-08-30T12:08:24;16.00;99.90
2967;DHT22;1493;51.496;7.210;2023-08-30T12:10:53;16.00;99.90
2967;DHT22;1493;51.496;7.210;2023-08-30T12:13:23;15.90;99.90
2967;DHT22;1493;51.496;7.210;2023-08-30T12:15:50;15.90;99.90
2967;DHT22;1493;51.496;7.210;2023-08-30T12:18:20;15.90;99.90
2967;DHT22;1493;51.496;7.210;2023-08-30T12:20:52;15.90;99.90
2967;DHT22;1493;51.496;7.210;2023-08-30T12:23:20;15.90;99.90
2967;DHT22;1493;51.496;7.210;2023-08-30T12:25:58;16.00;99.90
2967;DHT22;1493;51.496;7.210;2023-08-30T12:28:25;15.90;99.90
2967;DHT22;1493;51.496;7.210;2023-08-30T12:30:52;16.00;99.90
2967;DHT22;1493;51.496;7.210;2023-08-30T12:33:19;16.00;99.90
2967;DHT22;1493;51.496;7.210;2023-08-30T12:35:47;16.10;99.90
2967;DHT22;1493;51.496;7.210;2023-08-30T12:38:13;16.10;99.90
2967;DHT22;1493;51.496;7.210;2023-08-30T12:40:44;16.20;99.90
2967;DHT22;1493;51.496;7.210;2023-08-30T12:43:12;16.00;99.90
2967;DHT22;1493;51.496;7.210;2023-08-30T12:45:40;16.10;99.90
2967;DHT22;1493;51.496;7.210;2023-08-30T12:48:07;16.00;99.90
2967;DHT22;1493;51.496;7.210;2023-08-30T12:50:35;16.00;99.90
2967;DHT22;1493;51.496;7.210;2023-08-30T12:53:02;15.80;99.90
2967;DHT22;1493;51.496;7.210;2023-08-30T12:55:29;15.80;99.90
2967;DHT22;1493;51.496;7.210;2023-08-30T12:57:56;15.90;99.90
2967;DHT22;1493;51.496;7.210;2023-08-30T13:00:24;16.10;99.90
2967;DHT22;1493;51.496;7.210;2023-08-30T13:02:51;16.20;99.90
2967;DHT22;1493;51.496;7.210;2023-08-30T13:05:18;16.20;99.90
2967;DHT22;1493;51.496;7.210;2023-08-30T13:07:46;16.30;99.90
2967;DHT22;1493;51.496;7.210;2023-08-30T13:10:14;16.30;99.90
2967;DHT22;1493;51.496;7.210;2023-08-30T13:12:40;16.40;99.90
2967;DHT22;1493;51.496;7.210;2023-08-30T13:15:08;16.30;99.90
2967;DHT22;1493;51.496;7.210;2023-08-30T13:17:36;16.30;99.90
2967;DHT22;1493;51.496;7.210;2023-08-30T13:20:04;16.30;99.90
2967;DHT22;1493;51.496;7.210;2023-08-30T13:22:31;16.30;99.90
2967;DHT22;1493;51.496;7.210;2023-08-30T13:24:59;16.20;99.90
2967;DHT22;1493;51.496;7.210;2023-08-30T13:27:25;16.30;99.90
2967;DHT22;1493;51.496;7.210;2023-08-30T13:29:52;16.20;99.90
2967;DHT22;1493;51.496;7.210;2023-08-30T13:32:19;16.20;99.90
2967;DHT22;1493;51.496;7.210;2023-08-30T13:34:47;16.20;99.90
2967;DHT22;1493;51.496;7.210;2023-08-30T13:37:14;16.00;99.90
2967;DHT22;1493;51.496;7.210;2023-08-30T13:39:41;16.00;99.90
2967;DHT22;1493;51.496;7.210;2023-08-30T13:42:08;16.00;99.90
2967;DHT22;1493;51.496;7.210;2023-08-30T13:44:35;15.90;99.90
2967;DHT22;1493;51.496;7.210;2023-08-30T13:47:03;16.00;99.90
2967;DHT22;1493;51.496;7.210;2023-08-30T13:49:30;16.00;99.90
2967;DHT22;1493;51.496;7.210;2023-08-30T13:51:58;16.00;99.90
2967;DHT22;1493;51.496;7.210;2023-08-30T13:54:26;16.00;99.90
2967;DHT22;1493;51.496;7.210;2023-08-30T13:56:56;15.90;99.90
2967;DHT22;1493;51.496;7.210;2023-08-30T13:59:23;15.90;99.90
2967;DHT22;1493;51.496;7.210;2023-08-30T14:01:49;16.00;99.90
2967;DHT22;1493;51.496;7.210;2023-08-30T14:04:16;16.00;99.90
2967;DHT22;1493;51.496;7.210;2023-08-30T14:06:43;16.00;99.90
2967;DHT22;1493;51.496;7.210;2023-08-30T14:09:11;16.10;99.90
2967;DHT22;1493;51.496;7.210;2023-08-30T14:11:39;16.10;99.90
2967;DHT22;1493;51.496;7.210;2023-08-30T14:14:07;16.10;99.90
2967;DHT22;1493;51.496;7.210;2023-08-30T14:16:34;16.10;99.90
2967;DHT22;1493;51.496;7.210;2023-08-30T14:19:02;16.20;99.90
2967;DHT22;1493;51.496;7.210;2023-08-30T14:21:31;16.20;99.90
2967;DHT22;1493;51.496;7.210;2023-08-30T14:23:58;16.30;99.90
2967;DHT22;1493;51.496;7.210;2023-08-30T14:26:27;16.30;99.90
2967;DHT22;1493;51.496;7.210;2023-08-30T14:28:54;16.30;99.90
2967;DHT22;1493;51.496;7.210;2023-08-30T14:31:21;16.40;99.90
2967;DHT22;1493;51.496;7.210;2023-08-30T14:33:48;16.20;99.90
2967;DHT22;1493;51.496;7.210;2023-08-30T14:36:14;16.30;99.90
2967;DHT22;1493;51.496;7.210;2023-08-30T14:38:42;16.30;99.90
2967;DHT22;1493;51.496;7.210;2023-08-30T14:41:09;16.20;99.90
2967;DHT22;1493;51.496;7.210;2023-08-30T14:43:37;16.20;99.90
2967;DHT22;1493;51.496;7.210;2023-08-30T14:46:04;16.20;99.90
2967;DHT22;1493;51.496;7.210;2023-08-30T14:48:32;16.20;99.90
2967;DHT22;1493;51.496;7.210;2023-08-30T14:50:59;16.20;99.90
2967;DHT22;1493;51.496;7.210;2023-08-30T14:53:26;16.20;99.90
2967;DHT22;1493;51.496;7.210;2023-08-30T14:55:53;16.20;99.90
2967;DHT22;1493;51.496;7.210;2023-08-30T14:58:20;16.30;99.90
2967;DHT22;1493;51.496;7.210;2023-08-30T15:00:49;16.30;99.90
2967;DHT22;1493;51.496;7.210;2023-08-30T15:03:16;16.20;99.90
2967;DHT22;1493;51.496;7.210;2023-08-30T15:05:44;16.10;99.90
2967;DHT22;1493;51.496;7.210;2023-08-30T15:08:11;16.10;99.90
2967;DHT22;1493;51.496;7.210;2023-08-30T15:10:37;16.00;99.90
2967;DHT22;1493;51.496;7.210;2023-08-30T15:13:04;15.80;99.90
2967;DHT22;1493;51.496;7.210;2023-08-30T15:15:32;15.70;99.90
2967;DHT22;1493;51.496;7.210;2023-08-30T15:18:00;15.70;99.90
2967;DHT22;1493;51.496;7.210;2023-08-30T15:20:27;15.60;99.90
2967;DHT22;1493;51.496;7.210;2023-08-30T15:22:54;15.70;99.90
2967;DHT22;1493;51.496;7.210;2023-08-30T15:25:21;15.60;99.90
2967;DHT22;1493;51.496;7.210;2023-08-30T15:27:48;15.50;99.90
2967;DHT22;1493;51.496;7.210;2023-08-30T15:30:15;15.40;99.90
2967;DHT22;1493;51.496;7.210;2023-08-30T15:32:44;15.50;99.90
2967;DHT22;1493;51.496;7.210;2023-08-30T15:35:12;15.50;99.90
2967;DHT22;1493;51.496;7.210;2023-08-30T15:37:38;15.60;99.90
2967;DHT22;1493;51.496;7.210;2023-08-30T15:40:06;15.40;99.90
2967;DHT22;1493;51.496;7.210;2023-08-30T15:42:35;15.50;99.90
2967;DHT22;1493;51.496;7.210;2023-08-30T15:45:03;15.50;99.90
2967;DHT22;1493;51.496;7.210;2023-08-30T15:47:31;15.50;99.90
2967;DHT22;1493;51.496;7.210;2023-08-30T15:49:58;15.50;99.90
2967;DHT22;1493;51.496;7.210;2023-08-30T15:52:26;15.50;99.90
2967;DHT22;1493;51.496;7.210;2023-08-30T15:54:53;15.60;99.90
2967;DHT22;1493;51.496;7.210;2023-08-30T15:57:20;15.70;99.90
2967;DHT22;1493;51.496;7.210;2023-08-30T15:59:47;15.70;99.90
2967;DHT22;1493;51.496;7.210;2023-08-30T16:02:14;15.60;99.90
2967;DHT22;1493;51.496;7.210;2023-08-30T16:04:40;15.70;99.90
2967;DHT22;1493;51.496;7.210;2023-08-30T16:07:07;15.80;99.90
2967;DHT22;1493;51.496;7.210;2023-08-30T16:09:35;15.90;99.90